Time;durP1;ratioP1;P1;durP2;ratioP2;P2;SDS_P1;SDS_P2;PMS_P1;PMS_P2;Temp;Humidity;BMP_temperature;BMP_pressure;BME280_temperature;BME280_humidity;BME280_pressure;Samples;Min_cycle;Max_cycle;Signal;HPM_P1;HPM_P2
2022/02/03 00:07:24;;;;;;;3.33;2.80;;;10.40;99.90;;;;;;5056751;28;20599;-84
2022/02/03 00:10:09;;;;;;;7.10;3.30;;;10.40;99.90;;;;;;5056986;28;20740;-81
2022/02/03 00:26:30;;;;;;;4.72;2.58;;;10.20;99.90;;;;;;5057110;28;20191;-78
2022/02/03 00:28:56;;;;;;;10.50;3.10;;;10.20;99.90;;;;;;5057737;28;20160;-91
2022/02/03 00:34:28;;;;;;;2.75;1.92;;;10.10;99.90;;;;;;5072070;28;20206;-88
2022/02/03 00:50:39;;;;;;;4.30;1.25;;;10.10;99.90;;;;;;5057928;28;20309;-89
2022/02/03 00:53:12;;;;;;;3.30;1.27;;;10.10;99.90;;;;;;5057262;28;20179;-87
2022/02/03 00:55:41;;;;;;;1.52;1.10;;;10.00;99.90;;;;;;5057148;28;20175;-82
2022/02/03 00:58:09;;;;;;;3.10;1.25;;;10.10;99.90;;;;;;5039058;28;20167;-82
2022/02/03 01:00:35;;;;;;;2.88;1.30;;;10.20;99.90;;;;;;5056953;28;20171;-88
2022/02/03 01:03:13;;;;;;;6.40;1.30;;;10.10;99.90;;;;;;5062935;28;20180;-77
2022/02/03 01:05:42;;;;;;;3.03;1.95;;;10.20;99.90;;;;;;5072989;28;20167;-77
2022/02/03 01:08:21;;;;;;;9.93;1.20;;;10.30;99.90;;;;;;5079285;28;20147;-82
2022/02/03 01:10:55;;;;;;;5.43;1.27;;;10.40;99.90;;;;;;5060169;28;20206;-85
2022/02/03 01:16:46;;;;;;;5.28;1.42;;;10.40;99.90;;;;;;5058203;28;20171;-89
2022/02/03 01:43:17;;;;;;;2.42;1.65;;;10.30;99.90;;;;;;5046369;28;20179;-86
2022/02/03 01:43:35;;;;;;;3.92;0.88;;;10.10;99.90;;;;;;5056866;28;20213;-90
2022/02/03 01:46:15;;;;;;;5.97;1.55;;;10.10;99.90;;;;;;5057431;28;20156;-90
2022/02/03 01:54:04;;;;;;;3.33;1.48;;;10.10;99.90;;;;;;5059654;28;20174;-89
2022/02/03 01:57:00;;;;;;;2.30;1.50;;;10.30;99.90;;;;;;5057541;28;20320;-89
2022/02/03 01:59:28;;;;;;;5.25;1.13;;;10.20;99.90;;;;;;5057257;28;20163;-90
2022/02/03 02:02:03;;;;;;;3.50;1.63;;;10.20;99.90;;;;;;5056901;28;20183;-78
2022/02/03 02:04:41;;;;;;;4.65;1.35;;;10.30;99.90;;;;;;5056387;28;20171;-83
2022/02/03 02:07:36;;;;;;;2.13;1.60;;;10.40;99.90;;;;;;5054155;28;20183;-79
2022/02/03 02:10:18;;;;;;;4.18;1.30;;;10.40;99.90;;;;;;5054760;28;20207;-79
2022/02/03 02:16:10;;;;;;;2.80;1.60;;;10.50;99.90;;;;;;5055321;28;20179;-85
2022/02/03 02:39:00;;;;;;;3.50;2.03;;;10.60;99.90;;;;;;5054384;28;20232;-79
2022/02/03 02:44:51;;;;;;;6.20;2.47;;;10.50;99.90;;;;;;5055021;28;20182;-85
2022/02/03 02:47:30;;;;;;;5.63;1.67;;;10.30;99.90;;;;;;5054070;28;20167;-86
2022/02/03 02:50:12;;;;;;;4.30;2.25;;;10.30;99.90;;;;;;5052975;28;20249;-82
2022/02/03 02:52:54;;;;;;;2.58;2.05;;;10.50;99.90;;;;;;5053639;28;20179;-89
2022/02/03 02:55:46;;;;;;;3.72;2.03;;;10.40;99.90;;;;;;5053932;28;20171;-90
2022/02/03 03:03:59;;;;;;;5.70;2.20;;;10.10;99.90;;;;;;5054462;28;20245;-86
2022/02/03 03:35:01;;;;;;;6.88;3.15;;;10.00;99.90;;;;;;5057457;28;20175;-88
2022/02/03 03:37:00;;;;;;;6.45;3.13;;;10.20;99.90;;;;;;5061831;28;20179;-79
2022/02/03 03:39:31;;;;;;;7.57;4.18;;;10.30;99.90;;;;;;5079314;28;20155;-78
2022/02/03 03:42:21;;;;;;;7.40;4.00;;;10.30;99.90;;;;;;5080432;28;20183;-84
2022/02/03 03:44:49;;;;;;;3.65;2.85;;;10.30;99.90;;;;;;5071225;28;20167;-82
2022/02/03 03:47:24;;;;;;;4.65;3.63;;;10.30;99.90;;;;;;5063013;28;20166;-88
2022/02/03 03:50:00;;;;;;;6.45;3.60;;;10.30;99.90;;;;;;5069819;28;20206;-79
2022/02/03 03:52:29;;;;;;;5.82;3.35;;;10.20;99.90;;;;;;5043814;28;20595;-85
2022/02/03 03:55:54;;;;;;;6.18;3.35;;;10.10;99.90;;;;;;5056474;28;20574;-87
2022/02/03 04:30:45;;;;;;;6.05;4.85;;;10.20;99.90;;;;;;5056573;28;20276;-78
2022/02/03 04:39:05;;;;;;;9.05;5.85;;;10.30;99.90;;;;;;5056512;28;20220;-88
2022/02/03 04:44:54;;;;;;;11.32;5.78;;;10.00;99.90;;;;;;5055619;28;20258;-90
2022/02/03 05:05:14;;;;;;;6.38;5.22;;;9.90;99.90;;;;;;5062727;28;20167;-87
2022/02/03 05:11:09;;;;;;;7.75;5.68;;;9.80;99.90;;;;;;5073953;28;20206;-86
2022/02/03 05:14:44;;;;;;;4.78;4.32;;;9.80;99.90;;;;;;5064258;28;20175;-85
2022/02/03 05:20:42;;;;;;;6.68;4.80;;;9.90;99.90;;;;;;5062382;28;20175;-78
2022/02/03 05:42:24;;;;;;;6.78;3.33;;;9.80;99.90;;;;;;5054905;28;20183;-88
2022/02/03 05:51:12;;;;;;;3.53;3.03;;;9.50;99.90;;;;;;5055129;28;20219;-89
2022/02/03 06:07:29;;;;;;;5.38;2.75;;;9.60;99.90;;;;;;5054385;28;20689;-90
2022/02/03 06:15:13;;;;;;;6.68;3.47;;;9.30;99.90;;;;;;5054672;28;20179;-89
2022/02/03 06:23:27;;;;;;;11.75;2.97;;;9.40;99.90;;;;;;5053743;28;20213;-84
2022/02/03 06:28:42;;;;;;;8.13;2.72;;;9.30;99.90;;;;;;5054403;28;20173;-88
2022/02/03 06:31:07;;;;;;;3.42;2.92;;;9.40;99.90;;;;;;5054153;28;20302;-79
2022/02/03 06:33:33;;;;;;;4.63;2.95;;;9.40;99.90;;;;;;5053817;28;20218;-82
2022/02/03 06:35:58;;;;;;;5.05;3.15;;;9.30;99.90;;;;;;5053649;28;20163;-77
2022/02/03 06:38:24;;;;;;;8.38;3.35;;;9.40;99.90;;;;;;5053997;28;20191;-89
2022/02/03 06:40:50;;;;;;;4.20;3.55;;;9.40;99.90;;;;;;5053856;28;20189;-90
2022/02/03 06:43:18;;;;;;;5.65;2.95;;;9.40;99.90;;;;;;5052982;28;20197;-89
2022/02/03 06:45:48;;;;;;;19.35;3.13;;;9.50;99.90;;;;;;5053454;28;20222;-82
2022/02/03 06:48:17;;;;;;;7.70;2.53;;;9.50;99.90;;;;;;5053191;28;20171;-88
2022/02/03 06:50:52;;;;;;;8.75;3.25;;;9.60;99.90;;;;;;5054458;28;20217;-81
2022/02/03 06:53:22;;;;;;;7.15;2.75;;;9.50;99.90;;;;;;5051963;28;20190;-78
2022/02/03 06:58:38;;;;;;;4.32;3.00;;;9.70;99.90;;;;;;5060364;28;20202;-79
2022/02/03 07:03:38;;;;;;;14.75;2.72;;;9.70;99.90;;;;;;5061076;28;20198;-78
2022/02/03 07:06:05;;;;;;;10.27;3.65;;;9.50;99.90;;;;;;5053880;28;20174;-82
2022/02/03 07:08:34;;;;;;;5.13;2.55;;;9.40;99.90;;;;;;5047461;28;20163;-79
2022/02/03 07:11:01;;;;;;;4.22;3.05;;;9.50;99.90;;;;;;5058939;28;20280;-84
2022/02/03 07:13:27;;;;;;;4.50;3.13;;;9.30;99.90;;;;;;5062031;28;20195;-87
2022/02/03 07:15:53;;;;;;;15.73;3.22;;;9.20;99.90;;;;;;5061432;28;20163;-78
2022/02/03 07:18:23;;;;;;;3.17;2.35;;;9.30;99.90;;;;;;5061959;28;20278;-87
2022/02/03 07:20:49;;;;;;;9.48;3.83;;;9.30;99.90;;;;;;5056091;28;20164;-91
2022/02/03 07:23:15;;;;;;;6.88;2.90;;;9.50;99.90;;;;;;5058480;28;20211;-88
2022/02/03 07:25:41;;;;;;;9.65;2.75;;;9.60;99.90;;;;;;5058349;28;20194;-85
2022/02/03 07:28:08;;;;;;;6.25;2.83;;;9.80;99.90;;;;;;5062946;28;20143;-85
2022/02/03 07:30:41;;;;;;;6.60;2.80;;;9.50;99.90;;;;;;5059470;28;20199;-88
2022/02/03 07:33:07;;;;;;;8.60;3.03;;;9.60;99.90;;;;;;5053086;28;20282;-86
2022/02/03 07:35:35;;;;;;;6.90;3.00;;;9.70;99.90;;;;;;5053399;28;20163;-77
2022/02/03 07:38:04;;;;;;;5.93;3.25;;;9.60;99.90;;;;;;5053219;28;20676;-79
2022/02/03 07:40:31;;;;;;;13.65;3.55;;;9.60;99.90;;;;;;5054465;28;20159;-78
2022/02/03 07:42:57;;;;;;;13.38;3.10;;;9.80;99.90;;;;;;5058934;28;20229;-83
2022/02/03 07:45:23;;;;;;;11.60;4.80;;;9.80;99.90;;;;;;5058640;28;20163;-90
2022/02/03 07:47:53;;;;;;;9.60;2.80;;;9.60;99.90;;;;;;5062161;28;20156;-89
2022/02/03 07:50:19;;;;;;;9.40;3.53;;;9.60;99.90;;;;;;5060336;28;20211;-78
2022/02/03 07:52:46;;;;;;;7.43;3.33;;;9.60;99.90;;;;;;5058048;28;20227;-78
2022/02/03 07:55:13;;;;;;;5.32;2.90;;;9.60;99.90;;;;;;5056491;28;20198;-86
2022/02/03 07:57:50;;;;;;;6.57;3.22;;;9.50;99.90;;;;;;5057566;28;20163;-79
2022/02/03 08:00:22;;;;;;;4.25;2.90;;;9.50;99.90;;;;;;5057144;28;20711;-84
2022/02/03 08:02:47;;;;;;;6.15;3.80;;;9.50;99.90;;;;;;5062513;28;20207;-84
2022/02/03 08:05:18;;;;;;;8.02;3.17;;;9.50;99.90;;;;;;5054051;28;20180;-80
2022/02/03 08:08:12;;;;;;;10.55;3.88;;;9.40;99.90;;;;;;5043464;28;20231;-91
2022/02/03 08:11:03;;;;;;;10.60;2.63;;;9.50;99.90;;;;;;5040594;28;20294;-83
2022/02/03 08:16:03;;;;;;;11.20;3.78;;;9.30;99.90;;;;;;5057609;28;20184;-91
2022/02/03 08:18:32;;;;;;;4.22;3.25;;;9.40;99.90;;;;;;5043829;28;20175;-82
2022/02/03 08:21:05;;;;;;;4.82;3.28;;;9.30;99.90;;;;;;5055177;28;20191;-83
2022/02/03 08:28:43;;;;;;;3.88;2.60;;;9.50;99.90;;;;;;5060848;28;20179;-82
2022/02/03 08:31:20;;;;;;;5.47;2.83;;;9.40;99.90;;;;;;5059442;28;20203;-88
2022/02/03 08:33:50;;;;;;;4.28;2.88;;;9.40;99.90;;;;;;5059231;28;20175;-86
2022/02/03 08:36:16;;;;;;;10.30;3.10;;;9.40;99.90;;;;;;5061004;28;20160;-84
2022/02/03 08:41:09;;;;;;;5.45;2.97;;;9.40;99.90;;;;;;5058970;28;20658;-85
2022/02/03 08:43:37;;;;;;;6.88;3.55;;;9.30;99.90;;;;;;5072776;28;20194;-82
2022/02/03 08:46:05;;;;;;;6.68;3.42;;;9.40;99.90;;;;;;5074344;28;20154;-80
2022/02/03 08:48:32;;;;;;;4.35;2.85;;;9.50;99.90;;;;;;5056566;28;20203;-83
2022/02/03 08:51:02;;;;;;;8.68;2.97;;;9.60;99.90;;;;;;5036524;28;20219;-83
2022/02/03 09:53:37;;;;;;;11.70;3.45;;;9.30;99.90;;;;;;5039791;28;20199;-93
2022/02/03 09:58:38;;;;;;;5.95;2.55;;;9.50;99.90;;;;;;5054603;28;20234;-85
2022/02/03 10:01:10;;;;;;;10.07;3.05;;;9.40;99.90;;;;;;5054141;28;20205;-91
2022/02/03 10:04:03;;;;;;;9.32;3.13;;;9.50;99.90;;;;;;5052606;28;20179;-82
2022/02/03 10:06:25;;;;;;;9.90;3.80;;;9.70;99.90;;;;;;5053802;28;20206;-80
2022/02/03 10:08:53;;;;;;;11.63;3.88;;;9.40;99.90;;;;;;5052220;28;20199;-83
2022/02/03 10:11:23;;;;;;;8.10;3.40;;;9.40;99.90;;;;;;5034124;28;20223;-80
2022/02/03 10:13:54;;;;;;;11.02;2.95;;;9.50;99.90;;;;;;5048697;28;20179;-89
2022/02/03 10:16:33;;;;;;;6.10;3.10;;;9.50;99.90;;;;;;5051569;28;20183;-78
2022/02/03 10:19:06;;;;;;;7.22;3.67;;;9.40;99.90;;;;;;5052824;28;20241;-79
2022/02/03 10:21:32;;;;;;;11.20;3.20;;;9.40;99.90;;;;;;5053052;28;20187;-83
2022/02/03 10:24:04;;;;;;;5.72;2.83;;;9.30;99.90;;;;;;5053022;28;20242;-77
2022/02/03 10:26:34;;;;;;;6.15;2.90;;;9.40;99.90;;;;;;5052586;28;20179;-78
2022/02/03 10:29:00;;;;;;;6.35;3.08;;;9.50;99.90;;;;;;5050922;28;20624;-81
2022/02/03 10:31:33;;;;;;;5.10;3.08;;;9.40;99.90;;;;;;5051292;28;20203;-77
2022/02/03 10:34:07;;;;;;;9.88;2.97;;;9.50;99.90;;;;;;5052558;28;20293;-86
2022/02/03 10:45:43;;;;;;;9.68;3.00;;;9.50;99.90;;;;;;5030431;28;20187;-84
2022/02/03 10:48:50;;;;;;;7.28;2.60;;;9.70;99.90;;;;;;5049985;28;20190;-81
2022/02/03 10:54:22;;;;;;;13.27;3.78;;;9.70;99.90;;;;;;5053263;28;20640;-80
2022/02/03 11:00:13;;;;;;;8.60;3.05;;;9.80;99.90;;;;;;5052164;28;20217;-81
2022/02/03 11:08:14;;;;;;;4.97;2.95;;;9.80;99.90;;;;;;5057489;28;20221;-78
2022/02/03 11:10:43;;;;;;;9.88;3.00;;;9.90;99.90;;;;;;5061807;28;20206;-92
2022/02/03 11:13:10;;;;;;;12.50;4.22;;;9.90;99.90;;;;;;5053601;28;20254;-86
2022/02/03 11:15:37;;;;;;;5.47;3.28;;;10.00;99.90;;;;;;5053397;28;20179;-86
2022/02/03 11:18:07;;;;;;;10.25;3.58;;;10.00;99.90;;;;;;5053364;28;20229;-77
2022/02/03 11:20:38;;;;;;;9.00;3.00;;;9.90;99.90;;;;;;5054382;28;20167;-77
2022/02/03 11:23:17;;;;;;;13.07;2.88;;;9.90;99.90;;;;;;5053230;28;20195;-83
2022/02/03 12:12:36;;;;;;;10.95;4.28;;;10.20;99.90;;;;;;5036910;28;20200;-90
2022/02/03 12:20:34;;;;;;;7.53;3.53;;;10.10;99.90;;;;;;5036237;28;20175;-81
2022/02/03 12:23:08;;;;;;;8.95;4.63;;;10.10;99.90;;;;;;5036339;28;20620;-92
2022/02/03 12:26:01;;;;;;;7.70;3.60;;;10.20;99.90;;;;;;5036040;28;20175;-77
2022/02/03 12:39:05;;;;;;;5.40;3.47;;;10.30;99.90;;;;;;5036599;28;20183;-85
2022/02/03 12:41:41;;;;;;;7.43;4.32;;;10.30;99.90;;;;;;5042229;28;20160;-80
2022/02/03 12:44:18;;;;;;;14.23;4.70;;;10.30;99.90;;;;;;5037168;28;20402;-94
2022/02/03 12:46:44;;;;;;;4.90;3.67;;;10.40;99.90;;;;;;5036455;28;20183;-90
2022/02/03 12:49:10;;;;;;;9.45;3.97;;;10.70;99.90;;;;;;5036540;28;20214;-84
2022/02/03 12:51:35;;;;;;;8.15;3.95;;;10.60;99.90;;;;;;5038358;28;20176;-78
2022/02/03 12:54:17;;;;;;;5.97;3.95;;;10.20;99.90;;;;;;5035809;28;20170;-77
2022/02/03 12:56:43;;;;;;;7.10;3.85;;;10.10;99.90;;;;;;5035975;28;20636;-89
2022/02/03 12:59:14;;;;;;;7.28;4.05;;;10.20;99.90;;;;;;5035389;28;20179;-93
2022/02/03 13:01:41;;;;;;;4.53;3.45;;;10.00;99.90;;;;;;5035737;28;20171;-79
2022/02/03 13:04:15;;;;;;;9.75;3.92;;;10.10;99.90;;;;;;5035536;28;20163;-92
2022/02/03 13:06:55;;;;;;;7.50;4.55;;;10.20;99.90;;;;;;5035480;28;20159;-79
2022/02/03 13:09:31;;;;;;;6.10;4.32;;;10.10;99.90;;;;;;5034981;28;20667;-92
2022/02/03 13:12:08;;;;;;;10.10;4.63;;;10.00;99.90;;;;;;5039981;28;20195;-85
2022/02/03 13:14:43;;;;;;;7.38;4.13;;;9.90;99.90;;;;;;5039764;28;20262;-80
2022/02/03 13:27:14;;;;;;;7.25;4.45;;;9.50;99.90;;;;;;5035557;28;20214;-89
2022/02/03 13:30:01;;;;;;;10.23;4.82;;;9.70;99.90;;;;;;5035669;28;20200;-86
2022/02/03 13:32:35;;;;;;;11.18;4.82;;;9.70;99.90;;;;;;5037821;28;20199;-90
2022/02/03 13:35:18;;;;;;;10.52;5.18;;;9.80;99.90;;;;;;5035316;28;20624;-78
2022/02/03 13:38:05;;;;;;;9.00;4.65;;;9.80;99.90;;;;;;5035462;28;20246;-88
2022/02/03 13:40:31;;;;;;;9.35;4.97;;;9.70;99.90;;;;;;5035594;28;20159;-85
2022/02/03 13:43:08;;;;;;;11.65;5.85;;;9.60;99.90;;;;;;5034266;28;20192;-82
2022/02/03 13:45:34;;;;;;;6.40;5.03;;;9.50;99.90;;;;;;5036651;28;20294;-91
2022/02/03 13:48:02;;;;;;;9.45;5.25;;;9.40;99.90;;;;;;5035645;28;20171;-78
2022/02/03 13:50:30;;;;;;;7.38;4.93;;;9.60;99.90;;;;;;5035544;28;20215;-79
2022/02/03 13:53:09;;;;;;;15.23;6.50;;;9.80;99.90;;;;;;5035836;28;20180;-78
2022/02/03 14:21:06;;;;;;;10.70;6.00;;;10.00;99.90;;;;;;5057613;28;20193;-81
2022/02/03 14:29:07;;;;;;;9.65;5.88;;;10.10;99.90;;;;;;5054719;28;20198;-87
2022/02/03 14:31:35;;;;;;;18.35;7.85;;;10.10;99.90;;;;;;5066585;28;20183;-81
2022/02/03 14:34:06;;;;;;;14.60;6.78;;;9.90;99.90;;;;;;5074748;28;20163;-84
2022/02/03 14:36:33;;;;;;;10.27;7.18;;;9.90;99.90;;;;;;5067122;28;20171;-80
2022/02/03 14:41:43;;;;;;;13.60;8.02;;;9.90;99.90;;;;;;5054548;28;20182;-83
2022/02/03 14:44:08;;;;;;;15.00;8.25;;;9.90;99.90;;;;;;5053945;28;20174;-79
2022/02/03 14:46:34;;;;;;;11.50;6.72;;;9.70;99.90;;;;;;5052854;28;20171;-81
2022/02/03 14:49:00;;;;;;;12.13;6.80;;;9.80;99.90;;;;;;5051377;28;20203;-79
2022/02/03 14:51:35;;;;;;;14.25;7.60;;;9.70;99.90;;;;;;5052537;28;20292;-88
2022/02/03 14:59:13;;;;;;;11.55;8.20;;;9.90;99.90;;;;;;5050183;28;20186;-79
2022/02/03 15:01:39;;;;;;;12.50;7.30;;;9.90;99.90;;;;;;5052829;28;20178;-79
2022/02/03 15:04:09;;;;;;;24.67;10.75;;;9.80;99.90;;;;;;5049115;28;20250;-89
2022/02/03 15:06:53;;;;;;;19.10;7.43;;;9.80;99.90;;;;;;5054087;28;20264;-86
2022/02/03 15:09:33;;;;;;;10.70;7.57;;;9.60;99.90;;;;;;5051340;28;20619;-78
2022/02/03 15:12:09;;;;;;;11.82;7.40;;;9.70;99.90;;;;;;5053021;28;20621;-83
2022/02/03 15:14:36;;;;;;;17.10;7.55;;;9.80;99.90;;;;;;5052747;28;20167;-84
2022/02/03 15:17:03;;;;;;;10.90;7.47;;;10.20;99.90;;;;;;5054996;28;20630;-79
2022/02/03 15:19:28;;;;;;;14.45;8.00;;;10.10;99.90;;;;;;5057590;28;20174;-82
2022/02/03 15:21:54;;;;;;;21.73;7.30;;;9.90;99.90;;;;;;5056914;28;20211;-86
2022/02/03 15:24:20;;;;;;;12.00;8.27;;;9.90;99.90;;;;;;5065537;28;20250;-78
2022/02/03 15:26:45;;;;;;;13.02;8.40;;;9.80;99.90;;;;;;5060575;28;20190;-85
2022/02/03 15:29:12;;;;;;;10.32;8.25;;;9.90;99.90;;;;;;5057856;28;20533;-81
2022/02/03 15:31:39;;;;;;;9.13;7.47;;;10.00;99.90;;;;;;5048061;28;20203;-81
2022/02/03 15:34:10;;;;;;;13.55;7.90;;;10.10;99.90;;;;;;5058470;28;20277;-91
2022/02/03 15:36:39;;;;;;;14.40;7.75;;;10.20;99.90;;;;;;5057397;28;20194;-84
2022/02/03 15:39:11;;;;;;;20.83;7.43;;;10.00;99.90;;;;;;5056642;28;21308;-80
2022/02/03 15:41:38;;;;;;;17.65;7.05;;;9.90;99.90;;;;;;5056449;28;20217;-78
2022/02/03 15:44:04;;;;;;;7.60;6.88;;;9.80;99.90;;;;;;5056080;28;20166;-78
2022/02/03 15:46:33;;;;;;;11.88;7.70;;;9.80;99.90;;;;;;5056592;28;20171;-88
2022/02/03 16:16:35;;;;;;;12.00;7.18;;;9.40;99.90;;;;;;5056235;28;20202;-77
2022/02/03 16:18:10;;;;;;;24.00;7.63;;;9.40;99.90;;;;;;5055349;28;20214;-78
2022/02/03 16:20:47;;;;;;;10.98;7.35;;;9.20;99.90;;;;;;5054450;28;20191;-81
2022/02/03 16:50:25;;;;;;;12.70;7.68;;;9.20;99.90;;;;;;5053373;28;20245;-80
2022/02/03 16:52:52;;;;;;;9.13;7.80;;;9.20;99.90;;;;;;5053359;28;20183;-79
2022/02/03 16:55:22;;;;;;;10.30;7.93;;;9.30;99.90;;;;;;5054034;28;20576;-83
2022/02/03 16:57:50;;;;;;;12.13;7.60;;;9.20;99.90;;;;;;5053462;28;20171;-79
2022/02/03 17:00:18;;;;;;;13.95;10.13;;;9.30;99.90;;;;;;5052356;28;20178;-83
2022/02/03 17:02:45;;;;;;;15.20;9.15;;;9.30;99.90;;;;;;5055288;28;20187;-78
2022/02/03 17:05:12;;;;;;;9.18;8.05;;;9.30;99.90;;;;;;5055087;28;20152;-82
2022/02/03 17:07:38;;;;;;;11.60;8.32;;;9.40;99.90;;;;;;5054007;28;20210;-80
2022/02/03 17:10:05;;;;;;;15.48;9.02;;;9.30;99.90;;;;;;5054284;28;20628;-77
2022/02/03 17:12:31;;;;;;;9.45;7.90;;;9.20;99.90;;;;;;5049323;28;20203;-77
2022/02/03 17:14:57;;;;;;;14.10;8.50;;;9.50;99.90;;;;;;5053949;28;20544;-78
2022/02/03 17:17:24;;;;;;;12.38;7.55;;;9.50;99.90;;;;;;5054125;28;20163;-80
2022/02/03 17:19:50;;;;;;;13.25;8.23;;;9.50;99.90;;;;;;5054999;28;20242;-78
2022/02/03 17:22:20;;;;;;;9.95;8.27;;;9.40;99.90;;;;;;5055003;28;20231;-78
2022/02/03 17:25:25;;;;;;;14.88;8.45;;;9.40;99.90;;;;;;5055728;28;20199;-88
2022/02/03 17:27:50;;;;;;;15.88;9.02;;;9.40;99.90;;;;;;5055116;28;20175;-80
2022/02/03 17:30:21;;;;;;;12.88;9.30;;;9.30;99.90;;;;;;5054507;28;20207;-81
2022/02/03 18:08:44;;;;;;;17.25;12.30;;;9.10;99.90;;;;;;5041880;28;20187;-80
2022/02/03 18:32:51;;;;;;;18.13;12.45;;;9.00;99.90;;;;;;5055047;28;20198;-92
2022/02/03 18:35:07;;;;;;;18.55;12.80;;;9.10;99.90;;;;;;5050863;28;20175;-85
2022/02/03 18:45:48;;;;;;;20.15;13.50;;;9.20;99.90;;;;;;5055164;28;20171;-88
2022/02/03 18:51:47;;;;;;;17.38;11.25;;;9.10;99.90;;;;;;5031834;28;20699;-78
2022/02/03 20:06:30;;;;;;;20.23;11.85;;;8.90;99.90;;;;;;5015175;28;20173;-88
2022/02/03 20:09:09;;;;;;;17.75;11.75;;;9.00;99.90;;;;;;5030036;28;20180;-89
2022/02/03 20:11:36;;;;;;;16.77;11.88;;;9.10;99.90;;;;;;5037722;28;20218;-84
2022/02/03 20:14:10;;;;;;;21.67;10.50;;;9.30;99.90;;;;;;5036901;28;20160;-79
2022/02/03 20:16:36;;;;;;;18.45;10.70;;;9.00;99.90;;;;;;5037220;28;20163;-87
2022/02/03 20:19:02;;;;;;;16.65;11.00;;;9.00;99.90;;;;;;5037252;28;20629;-79
2022/02/03 20:21:31;;;;;;;17.55;11.82;;;9.00;99.90;;;;;;5036708;28;20191;-79
2022/02/03 20:23:57;;;;;;;22.10;12.07;;;9.10;99.90;;;;;;5037308;28;20508;-88
2022/02/03 20:26:22;;;;;;;15.75;10.27;;;9.10;99.90;;;;;;5037180;28;20199;-79
2022/02/03 20:28:48;;;;;;;16.60;11.27;;;8.90;99.90;;;;;;5036890;28;20306;-82
2022/02/03 20:31:14;;;;;;;15.50;11.10;;;9.00;99.90;;;;;;5036820;28;20218;-90
2022/02/03 20:33:40;;;;;;;16.90;11.98;;;9.10;99.90;;;;;;5036904;28;20318;-79
2022/02/03 20:36:07;;;;;;;17.02;11.00;;;9.10;99.90;;;;;;5035882;28;20585;-91
2022/02/03 20:38:33;;;;;;;18.35;11.63;;;9.10;99.90;;;;;;5036334;28;20160;-89
2022/02/03 20:40:58;;;;;;;15.98;11.10;;;9.10;99.90;;;;;;5036124;28;20541;-87
2022/02/03 20:43:24;;;;;;;19.88;11.63;;;9.10;99.90;;;;;;5035874;28;20238;-89
2022/02/03 20:45:51;;;;;;;18.65;11.98;;;9.30;99.90;;;;;;5035027;28;20180;-81
2022/02/03 20:48:17;;;;;;;15.13;11.35;;;9.20;99.90;;;;;;5035796;28;20636;-79
2022/02/03 20:50:46;;;;;;;18.30;11.77;;;9.10;99.90;;;;;;5036414;28;20576;-82
2022/02/03 20:53:12;;;;;;;19.00;12.02;;;9.20;99.90;;;;;;5035858;28;20592;-82
2022/02/03 20:55:41;;;;;;;20.67;12.50;;;9.20;99.90;;;;;;5035984;28;20164;-84
2022/02/03 20:58:11;;;;;;;21.60;12.30;;;9.20;99.90;;;;;;5034490;28;20167;-80
2022/02/03 21:00:43;;;;;;;15.68;10.40;;;9.40;99.90;;;;;;5036500;28;20168;-87
2022/02/03 21:05:57;;;;;;;20.95;12.10;;;9.30;99.90;;;;;;5032875;28;20176;-90
2022/02/03 21:08:30;;;;;;;19.23;11.32;;;9.20;99.90;;;;;;5035607;28;20168;-90
2022/02/03 21:10:56;;;;;;;26.85;15.43;;;9.30;99.90;;;;;;5035451;28;20203;-91
2022/02/03 21:13:22;;;;;;;20.70;12.90;;;9.30;99.90;;;;;;5035008;28;20322;-88
2022/02/03 21:15:47;;;;;;;16.13;11.35;;;9.20;99.90;;;;;;5035207;28;20183;-79
2022/02/03 21:18:15;;;;;;;21.15;12.80;;;9.30;99.90;;;;;;5035850;28;20180;-90
2022/02/03 21:20:42;;;;;;;16.75;11.05;;;9.30;99.90;;;;;;5034467;28;20459;-78
2022/02/03 21:23:10;;;;;;;21.60;12.63;;;9.20;99.90;;;;;;5034565;28;20203;-80
2022/02/03 21:25:42;;;;;;;20.25;13.00;;;9.20;99.90;;;;;;5035782;28;20256;-84
2022/02/03 21:28:19;;;;;;;20.73;12.65;;;9.30;99.90;;;;;;5035009;28;20229;-84
2022/02/03 21:30:45;;;;;;;16.75;11.55;;;9.50;99.90;;;;;;5035499;28;20243;-85
2022/02/03 21:33:15;;;;;;;18.73;11.98;;;9.50;99.90;;;;;;5034064;28;20180;-84
2022/02/03 21:35:45;;;;;;;21.55;11.90;;;9.50;99.90;;;;;;5035539;28;20210;-87
2022/02/03 21:38:11;;;;;;;18.13;11.93;;;9.40;99.90;;;;;;5035172;28;20168;-86
2022/02/03 21:40:37;;;;;;;15.93;10.48;;;9.30;99.90;;;;;;5034941;28;20659;-82
2022/02/03 21:43:03;;;;;;;16.60;11.68;;;9.20;99.90;;;;;;5034830;28;20191;-87
2022/02/03 21:45:30;;;;;;;20.15;12.60;;;9.30;99.90;;;;;;5034924;28;20180;-81
2022/02/03 21:47:58;;;;;;;31.80;12.77;;;9.40;99.90;;;;;;5034827;28;20160;-89
2022/02/03 21:50:28;;;;;;;18.83;11.55;;;9.40;99.90;;;;;;5034659;28;20207;-86
2022/02/03 21:52:55;;;;;;;17.45;11.32;;;9.50;99.90;;;;;;5034275;28;20176;-85
2022/02/03 21:55:21;;;;;;;19.58;10.68;;;9.30;99.90;;;;;;5034777;28;20172;-87
2022/02/03 21:57:51;;;;;;;14.85;9.88;;;9.40;99.90;;;;;;5034945;28;20161;-88
2022/02/03 22:00:17;;;;;;;17.20;11.88;;;9.30;99.90;;;;;;5034880;28;20179;-87
2022/02/03 22:02:44;;;;;;;14.18;11.07;;;9.30;99.90;;;;;;5035032;28;20241;-79
2022/02/03 22:05:13;;;;;;;13.88;9.75;;;9.30;99.90;;;;;;5034981;28;20656;-91
2022/02/03 22:07:40;;;;;;;16.35;10.00;;;9.30;99.90;;;;;;5035305;28;20195;-82
2022/02/03 22:10:11;;;;;;;12.55;8.93;;;9.30;99.90;;;;;;5035263;28;20188;-89
2022/02/03 22:12:37;;;;;;;19.33;10.48;;;9.30;99.90;;;;;;5035156;28;20194;-80
2022/02/03 22:15:04;;;;;;;15.73;9.80;;;9.10;99.90;;;;;;5035583;28;20172;-91
2022/02/03 22:17:30;;;;;;;16.38;10.52;;;9.10;99.90;;;;;;5035090;28;20206;-90
2022/02/03 22:19:57;;;;;;;13.35;9.43;;;9.00;99.90;;;;;;5033478;28;20167;-90
2022/02/03 22:45:53;;;;;;;11.73;9.13;;;9.30;99.90;;;;;;5055292;28;20167;-88
2022/02/03 22:50:48;;;;;;;15.43;9.48;;;9.30;99.90;;;;;;5054282;28;20266;-91
2022/02/03 22:53:13;;;;;;;17.52;10.55;;;9.40;99.90;;;;;;5054576;28;20207;-92
2022/02/03 22:55:39;;;;;;;19.20;9.45;;;9.30;99.90;;;;;;5055064;28;20167;-88
2022/02/03 23:00:58;;;;;;;18.90;10.00;;;9.10;99.90;;;;;;5044030;28;20198;-93
2022/02/03 23:03:25;;;;;;;14.65;10.32;;;9.00;99.90;;;;;;5054133;28;20551;-88
2022/02/03 23:05:50;;;;;;;13.45;10.23;;;9.10;99.90;;;;;;5053908;28;20175;-91
2022/02/03 23:09:03;;;;;;;16.67;9.85;;;9.30;99.90;;;;;;5066359;28;20201;-87
2022/02/03 23:11:16;;;;;;;14.98;9.68;;;9.30;99.90;;;;;;5064549;28;20223;-89
2022/02/03 23:19:15;;;;;;;14.52;10.55;;;9.40;99.90;;;;;;5043767;28;20202;-93
2022/02/03 23:21:47;;;;;;;15.93;9.52;;;9.40;99.90;;;;;;5054339;28;20274;-91
2022/02/03 23:24:14;;;;;;;18.23;10.57;;;9.50;99.90;;;;;;5052594;28;20167;-90
2022/02/03 23:26:39;;;;;;;13.55;9.35;;;9.60;99.90;;;;;;5052317;28;20203;-78
2022/02/03 23:29:10;;;;;;;16.48;9.98;;;9.70;99.90;;;;;;5052203;28;20205;-85
2022/02/03 23:34:18;;;;;;;13.02;9.75;;;9.40;99.90;;;;;;5054055;28;20183;-91
2022/02/03 23:36:44;;;;;;;13.15;9.05;;;9.30;99.90;;;;;;5053458;28;20163;-93
2022/02/03 23:42:18;;;;;;;11.75;9.13;;;9.40;99.90;;;;;;5058582;28;20187;-89
2022/02/03 23:44:35;;;;;;;13.73;9.32;;;9.30;99.90;;;;;;5057155;28;20183;-90
